createdAt,value
2023-04-15T00:01:10.119Z,2.50
2023-04-15T00:03:36.988Z,2.50
2023-04-15T00:06:04.020Z,2.50
2023-04-15T00:08:31.007Z,2.50
2023-04-15T00:11:02.637Z,2.50
2023-04-15T00:13:29.571Z,2.50
2023-04-15T00:15:56.247Z,2.50
2023-04-15T00:18:23.344Z,2.50
2023-04-15T00:20:50.231Z,2.60
2023-04-15T00:23:16.909Z,2.60
2023-04-15T00:25:43.610Z,2.60
2023-04-15T00:28:10.264Z,2.60
2023-04-15T00:30:37.325Z,2.50
2023-04-15T00:33:04.036Z,2.50
2023-04-15T00:35:32.771Z,2.60
2023-04-15T00:37:59.862Z,2.60
2023-04-15T00:40:26.512Z,2.60
2023-04-15T00:42:53.408Z,2.70
2023-04-15T00:45:20.086Z,2.60
2023-04-15T00:47:46.911Z,2.70
2023-04-15T00:50:14.212Z,2.70
2023-04-15T00:52:41.182Z,2.70
2023-04-15T00:55:08.753Z,2.70
2023-04-15T00:57:35.958Z,2.60
2023-04-15T01:00:04.479Z,2.50
2023-04-15T01:02:32.046Z,2.50
2023-04-15T01:04:58.813Z,2.40
2023-04-15T01:07:25.467Z,2.50
2023-04-15T01:09:52.431Z,2.40
2023-04-15T01:12:19.571Z,2.30
2023-04-15T01:14:46.571Z,2.40
2023-04-15T01:17:13.440Z,2.30
2023-04-15T01:19:40.763Z,2.30
2023-04-15T01:22:07.588Z,2.10
2023-04-15T01:24:35.109Z,2.20
2023-04-15T01:27:02.429Z,2.20
2023-04-15T01:29:29.313Z,2.10
2023-04-15T01:31:56.830Z,2.10
2023-04-15T01:34:23.572Z,2.00
2023-04-15T01:36:50.295Z,2.00
2023-04-15T01:39:17.034Z,2.00
2023-04-15T01:41:44.219Z,1.90
2023-04-15T01:44:11.099Z,2.00
2023-04-15T01:46:37.983Z,2.00
2023-04-15T01:49:04.927Z,2.00
2023-04-15T01:51:32.088Z,2.00
2023-04-15T01:53:58.760Z,2.00
2023-04-15T01:56:25.542Z,2.00
2023-04-15T01:58:52.683Z,1.90
2023-04-15T02:01:20.149Z,1.80
2023-04-15T02:03:47.879Z,1.70
2023-04-15T02:06:14.973Z,1.70
2023-04-15T02:08:41.660Z,1.70
2023-04-15T02:11:08.555Z,1.60
2023-04-15T02:13:35.244Z,1.60
2023-04-15T02:16:02.052Z,1.60
2023-04-15T02:18:28.812Z,1.70
2023-04-15T02:20:57.307Z,1.60
2023-04-15T02:23:24.223Z,1.50
2023-04-15T02:25:53.784Z,1.40
2023-04-15T02:28:21.559Z,1.40
2023-04-15T02:30:50.858Z,1.40
2023-04-15T02:33:18.095Z,1.40
2023-04-15T02:35:45.511Z,1.40
2023-04-15T02:38:12.279Z,1.30
2023-04-15T02:40:39.028Z,1.30
2023-04-15T02:43:07.063Z,1.30
2023-04-15T02:45:33.866Z,1.30
2023-04-15T02:48:03.947Z,1.30
2023-04-15T02:50:31.677Z,1.30
2023-04-15T02:52:58.468Z,1.20
2023-04-15T02:55:25.213Z,1.20
2023-04-15T02:57:52.036Z,1.20
2023-04-15T03:00:18.678Z,1.20
2023-04-15T03:02:46.842Z,1.10
2023-04-15T03:05:14.222Z,1.20
2023-04-15T03:07:41.136Z,1.20
2023-04-15T03:10:08.068Z,1.20
2023-04-15T03:12:34.717Z,1.20
2023-04-15T03:15:02.135Z,1.20
2023-04-15T03:17:28.829Z,1.20
2023-04-15T03:19:55.701Z,1.20
2023-04-15T03:22:22.444Z,1.20
2023-04-15T03:24:49.129Z,1.20
2023-04-15T03:27:15.928Z,1.30
2023-04-15T03:29:42.627Z,1.30
2023-04-15T03:32:09.262Z,1.40
2023-04-15T03:34:36.183Z,1.40
2023-04-15T03:37:02.832Z,1.40
2023-04-15T03:39:29.567Z,1.30
2023-04-15T03:41:56.488Z,1.30
2023-04-15T03:44:23.216Z,1.30
2023-04-15T03:46:49.970Z,1.10
2023-04-15T03:49:16.673Z,1.30
2023-04-15T03:51:43.323Z,1.30
2023-04-15T03:54:10.040Z,1.30
2023-04-15T03:56:36.788Z,1.30
2023-04-15T03:59:03.558Z,1.40
2023-04-15T04:01:30.335Z,1.30
2023-04-15T04:03:57.150Z,1.40
2023-04-15T04:06:23.977Z,1.30
2023-04-15T04:08:50.637Z,1.40
2023-04-15T04:11:17.275Z,1.40
2023-04-15T04:13:43.971Z,1.40
2023-04-15T04:16:14.690Z,1.30
2023-04-15T04:18:41.832Z,1.40
2023-04-15T04:21:11.981Z,1.40
2023-04-15T04:23:41.998Z,1.30
2023-04-15T04:26:14.471Z,1.30
2023-04-15T04:28:47.115Z,1.30
2023-04-15T04:31:17.964Z,1.20
2023-04-15T04:33:49.795Z,1.10
2023-04-15T04:36:17.121Z,1.10
2023-04-15T04:38:47.472Z,1.50
2023-04-15T04:41:17.613Z,1.10
2023-04-15T04:43:47.563Z,1.10
2023-04-15T04:46:23.703Z,1.10
2023-04-15T04:48:51.667Z,1.10
2023-04-15T04:51:19.338Z,1.10
2023-04-15T04:53:46.123Z,1.20
2023-04-15T04:56:27.343Z,1.20
2023-04-15T04:58:56.338Z,1.20
2023-04-15T05:01:23.593Z,1.30
2023-04-15T05:03:53.568Z,1.40
2023-04-15T05:06:21.432Z,1.60
2023-04-15T05:08:49.314Z,1.70
2023-04-15T05:11:20.333Z,1.80
2023-04-15T05:16:26.055Z,2.20
2023-04-15T05:18:52.895Z,2.10
2023-04-15T05:21:20.204Z,2.10
2023-04-15T05:23:47.077Z,2.10
2023-04-15T05:26:13.787Z,2.20
2023-04-15T05:28:40.790Z,2.30
2023-04-15T05:31:08.021Z,2.40
2023-04-15T05:33:34.728Z,2.50
2023-04-15T05:36:01.552Z,2.60
2023-04-15T05:38:28.131Z,2.70
2023-04-15T05:40:54.812Z,2.90
2023-04-15T05:43:21.517Z,3.30
2023-04-15T05:45:48.234Z,3.70
2023-04-15T05:48:14.883Z,4.40
2023-04-15T05:50:42.301Z,5.40
2023-04-15T05:53:09.133Z,6.80
2023-04-15T05:55:35.756Z,8.80
2023-04-15T05:58:03.697Z,10.50
2023-04-15T06:00:31.158Z,11.80
2023-04-15T06:02:58.900Z,12.80
2023-04-15T06:05:25.689Z,13.60
2023-04-15T06:07:52.340Z,14.20
2023-04-15T06:10:19.079Z,15.10
2023-04-15T06:12:45.989Z,16.60
2023-04-15T06:15:12.630Z,17.00
2023-04-15T06:17:39.385Z,15.70
2023-04-15T06:20:06.555Z,14.30
2023-04-15T06:22:34.313Z,12.90
2023-04-15T06:25:01.062Z,12.00
2023-04-15T06:27:27.616Z,11.50
2023-04-15T06:29:54.273Z,11.10
2023-04-15T06:32:21.276Z,11.30
2023-04-15T06:34:48.023Z,11.40
2023-04-15T06:37:16.358Z,11.80
2023-04-15T06:39:43.516Z,11.90
2023-04-15T06:42:10.854Z,11.80
2023-04-15T06:44:37.803Z,11.60
2023-04-15T06:47:04.408Z,10.90
2023-04-15T06:49:31.007Z,10.30
2023-04-15T06:51:57.680Z,9.70
2023-04-15T06:54:24.305Z,9.60
2023-04-15T06:56:51.610Z,9.60
2023-04-15T06:59:18.268Z,9.40
2023-04-15T07:01:44.949Z,9.10
2023-04-15T07:04:12.606Z,8.90
2023-04-15T07:06:39.680Z,9.00
2023-04-15T07:09:06.340Z,8.90
2023-04-15T07:11:32.997Z,8.60
2023-04-15T07:13:59.591Z,9.00
2023-04-15T07:16:28.636Z,8.90
2023-04-15T07:18:56.426Z,9.20
2023-04-15T07:21:23.990Z,9.30
2023-04-15T07:23:50.976Z,9.60
2023-04-15T07:26:17.666Z,10.20
2023-04-15T07:28:47.425Z,11.20
2023-04-15T07:31:14.940Z,12.00
2023-04-15T07:33:41.795Z,12.30
2023-04-15T07:36:08.699Z,12.20
2023-04-15T07:38:35.672Z,12.00
2023-04-15T07:41:02.581Z,13.20
2023-04-15T07:43:29.197Z,13.90
2023-04-15T07:45:55.885Z,14.80
2023-04-15T07:48:22.521Z,15.30
2023-04-15T07:50:49.101Z,16.00
2023-04-15T07:53:15.711Z,16.80
2023-04-15T07:55:42.370Z,17.90
2023-04-15T07:58:09.032Z,19.00
2023-04-15T08:00:36.157Z,19.70
2023-04-15T08:03:03.125Z,19.20
2023-04-15T08:05:30.355Z,19.00
2023-04-15T08:07:57.232Z,20.20
2023-04-15T08:10:25.784Z,21.10
2023-04-15T08:12:54.338Z,22.80
2023-04-15T08:15:21.574Z,24.30
2023-04-15T08:17:48.321Z,25.10
2023-04-15T08:20:15.131Z,25.20
2023-04-15T08:22:42.502Z,25.50
2023-04-15T08:25:10.225Z,25.30
2023-04-15T08:27:36.832Z,24.50
2023-04-15T08:30:05.193Z,23.80
2023-04-15T08:32:32.094Z,23.00
2023-04-15T08:34:58.877Z,22.30
2023-04-15T08:37:27.080Z,21.50
2023-04-15T08:39:53.811Z,20.80
2023-04-15T08:42:24.033Z,20.40
2023-04-15T08:44:51.192Z,19.60
2023-04-15T08:47:20.476Z,19.60
2023-04-15T08:49:53.685Z,19.70
2023-04-15T08:52:20.871Z,21.10
2023-04-15T08:54:48.108Z,22.20
2023-04-15T08:57:15.566Z,22.90
2023-04-15T08:59:42.912Z,22.80
2023-04-15T09:02:09.657Z,23.20
2023-04-15T09:04:36.456Z,23.00
2023-04-15T09:07:03.156Z,22.90
2023-04-15T09:09:29.814Z,22.70
2023-04-15T09:11:56.804Z,22.80
2023-04-15T09:14:23.430Z,22.50
2023-04-15T09:17:00.819Z,21.40
2023-04-15T09:19:27.832Z,21.40
2023-04-15T09:21:58.675Z,22.70
2023-04-15T09:24:27.078Z,22.30
2023-04-15T09:26:55.422Z,22.00
2023-04-15T09:29:24.380Z,21.50
2023-04-15T09:31:51.535Z,20.90
2023-04-15T09:34:18.373Z,21.00
2023-04-15T09:36:50.420Z,20.30
2023-04-15T09:39:17.649Z,20.20
2023-04-15T09:41:45.155Z,21.50
2023-04-15T09:44:24.692Z,23.00
2023-04-15T09:46:51.513Z,24.20
2023-04-15T09:49:18.260Z,23.30
2023-04-15T09:51:54.089Z,21.90
2023-04-15T09:54:24.491Z,20.40
2023-04-15T09:56:51.221Z,20.00
2023-04-15T09:59:19.097Z,20.00
2023-04-15T10:01:47.111Z,19.50
2023-04-15T10:04:14.282Z,19.20
2023-04-15T10:06:41.164Z,19.80
2023-04-15T10:09:08.592Z,20.40
2023-04-15T10:11:35.618Z,21.00
2023-04-15T10:14:03.075Z,20.90
2023-04-15T10:16:32.658Z,21.00
2023-04-15T10:19:01.333Z,20.00
2023-04-15T10:21:28.391Z,19.10
2023-04-15T10:23:55.077Z,18.50
2023-04-15T10:26:21.982Z,17.80
2023-04-15T10:28:51.471Z,17.40
2023-04-15T10:31:18.631Z,17.00
2023-04-15T10:33:45.875Z,17.40
2023-04-15T10:36:12.692Z,17.00
2023-04-15T10:38:39.439Z,16.90
2023-04-15T10:41:12.148Z,17.10
2023-04-15T10:43:38.835Z,17.00
2023-04-15T10:46:06.207Z,17.00
2023-04-15T10:48:33.155Z,17.40
2023-04-15T10:51:05.025Z,17.30
2023-04-15T10:53:32.021Z,16.80
2023-04-15T10:55:59.790Z,16.50
2023-04-15T10:58:26.521Z,16.20
2023-04-15T11:00:53.822Z,15.90
2023-04-15T11:03:37.483Z,15.80
2023-04-15T11:06:04.463Z,15.90
2023-04-15T11:08:51.328Z,16.10
2023-04-15T11:11:17.946Z,16.80
2023-04-15T11:13:51.485Z,17.50
2023-04-15T11:16:18.376Z,17.40
2023-04-15T11:18:53.666Z,17.40
2023-04-15T11:21:24.347Z,17.10
2023-04-15T11:23:51.412Z,16.90
2023-04-15T11:26:18.129Z,16.90
2023-04-15T11:28:45.665Z,16.50
2023-04-15T11:31:12.462Z,16.00
2023-04-15T11:33:45.004Z,16.00
2023-04-15T11:36:11.691Z,16.10
2023-04-15T11:38:42.404Z,15.70
2023-04-15T11:41:09.094Z,16.20
2023-04-15T11:43:35.931Z,16.40
2023-04-15T11:46:03.682Z,16.80
2023-04-15T11:48:34.733Z,17.10
2023-04-15T11:51:01.683Z,17.00
2023-04-15T11:53:38.670Z,16.60
2023-04-15T11:56:05.456Z,16.20
2023-04-15T11:58:34.328Z,15.60
2023-04-15T12:01:01.158Z,15.80
2023-04-15T12:03:29.364Z,16.00
2023-04-15T12:06:11.853Z,15.90
2023-04-15T12:08:54.110Z,16.00
2023-04-15T12:11:26.704Z,16.10
2023-04-15T12:13:57.689Z,16.00
2023-04-15T12:16:24.716Z,16.40
2023-04-15T12:18:52.846Z,16.60
2023-04-15T12:21:20.927Z,16.60
2023-04-15T12:23:51.571Z,16.40
2023-04-15T12:26:19.197Z,16.20
2023-04-15T12:28:46.632Z,15.50
2023-04-15T12:31:14.430Z,15.70
2023-04-15T12:33:41.374Z,15.70
2023-04-15T12:36:08.351Z,15.40
2023-04-15T12:38:35.084Z,14.50
2023-04-15T12:41:01.763Z,14.20
2023-04-15T12:43:28.441Z,14.30
2023-04-15T12:45:55.361Z,14.00
2023-04-15T12:48:22.060Z,13.90
2023-04-15T12:50:48.842Z,13.20
2023-04-15T12:53:15.449Z,13.30
2023-04-15T12:55:42.148Z,13.40
2023-04-15T12:58:08.919Z,13.40
2023-04-15T13:00:35.582Z,13.40
2023-04-15T13:03:04.042Z,13.50
2023-04-15T13:05:32.211Z,13.50
2023-04-15T13:07:58.880Z,13.40
2023-04-15T13:10:25.640Z,13.10
2023-04-15T13:12:53.513Z,13.00
2023-04-15T13:15:22.319Z,12.50
2023-04-15T13:17:49.260Z,12.70
2023-04-15T13:20:16.118Z,12.50
2023-04-15T13:22:42.775Z,12.60
2023-04-15T13:25:09.617Z,12.50
2023-04-15T13:27:36.293Z,12.20
2023-04-15T13:30:03.450Z,12.40
2023-04-15T13:32:30.368Z,12.30
2023-04-15T13:34:57.155Z,12.20
2023-04-15T13:37:28.016Z,11.90
2023-04-15T13:39:55.131Z,11.70
2023-04-15T13:42:22.482Z,11.70
2023-04-15T13:44:52.023Z,11.70
2023-04-15T13:47:22.125Z,11.80
2023-04-15T13:49:48.781Z,11.80
2023-04-15T13:52:15.394Z,11.90
2023-04-15T13:54:42.178Z,11.80
2023-04-15T13:57:09.017Z,12.00
2023-04-15T13:59:35.887Z,11.70
2023-04-15T14:02:02.901Z,11.70
2023-04-15T14:04:30.837Z,11.70
2023-04-15T14:06:57.970Z,11.90
2023-04-15T14:09:26.494Z,12.00
2023-04-15T14:11:54.796Z,12.10
2023-04-15T14:14:21.856Z,12.00
2023-04-15T14:16:48.601Z,11.90
2023-04-15T14:19:15.231Z,11.90
2023-04-15T14:21:41.887Z,11.60
2023-04-15T14:24:08.745Z,11.80
2023-04-15T14:26:35.394Z,11.80
2023-04-15T14:29:02.257Z,12.00
2023-04-15T14:31:29.160Z,11.90
2023-04-15T14:33:55.976Z,12.00
2023-04-15T14:36:22.702Z,12.20
2023-04-15T14:38:49.419Z,12.40
2023-04-15T14:41:16.251Z,12.60
2023-04-15T14:43:42.907Z,12.70
2023-04-15T14:46:10.562Z,12.70
2023-04-15T14:48:37.436Z,12.60
2023-04-15T14:51:04.196Z,12.70
2023-04-15T14:53:30.795Z,12.60
2023-04-15T14:55:57.652Z,12.50
2023-04-15T14:58:24.306Z,12.50
2023-04-15T15:00:51.016Z,12.50
2023-04-15T15:03:17.628Z,12.30
2023-04-15T15:05:46.117Z,12.20
2023-04-15T15:08:13.342Z,12.20
2023-04-15T15:10:48.969Z,12.10
2023-04-15T15:13:16.977Z,12.10
2023-04-15T15:15:43.804Z,12.10
2023-04-15T15:18:10.696Z,12.10
2023-04-15T15:20:37.349Z,11.70
2023-04-15T15:23:03.931Z,11.80
2023-04-15T15:25:30.530Z,11.70
2023-04-15T15:27:57.572Z,11.70
2023-04-15T15:30:24.217Z,11.70
2023-04-15T15:32:51.498Z,11.70
2023-04-15T15:35:18.249Z,11.80
2023-04-15T15:37:45.706Z,11.70
2023-04-15T15:40:12.765Z,11.70
2023-04-15T15:42:39.383Z,11.80
2023-04-15T15:45:06.450Z,11.60
2023-04-15T15:47:33.276Z,11.70
2023-04-15T15:50:00.486Z,11.90
2023-04-15T15:52:27.166Z,11.80
2023-04-15T15:54:53.807Z,11.80
2023-04-15T15:57:20.399Z,11.70
2023-04-15T15:59:46.991Z,11.70
2023-04-15T16:02:17.052Z,11.60
2023-04-15T16:04:43.779Z,11.40
2023-04-15T16:07:11.208Z,11.30
2023-04-15T16:09:37.874Z,11.20
2023-04-15T16:12:04.623Z,11.20
2023-04-15T16:14:31.323Z,11.10
2023-04-15T16:16:58.049Z,11.00
2023-04-15T16:19:24.851Z,10.80
2023-04-15T16:21:51.684Z,10.90
2023-04-15T16:24:18.380Z,10.80
2023-04-15T16:26:45.167Z,10.90
2023-04-15T16:29:11.963Z,11.00
2023-04-15T16:31:40.060Z,10.90
2023-04-15T16:34:06.808Z,10.70
2023-04-15T16:36:34.314Z,10.60
2023-04-15T16:39:01.213Z,10.60
2023-04-15T16:41:28.236Z,10.50
2023-04-15T16:43:55.669Z,10.50
2023-04-15T16:46:22.311Z,10.40
2023-04-15T16:48:48.952Z,10.30
2023-04-15T16:51:15.749Z,10.30
2023-04-15T16:53:42.376Z,10.30
2023-04-15T16:56:09.061Z,10.10
2023-04-15T16:58:35.648Z,10.20
2023-04-15T17:01:02.340Z,10.00
2023-04-15T17:03:29.190Z,9.80
2023-04-15T17:05:55.927Z,9.70
2023-04-15T17:08:22.988Z,9.70
2023-04-15T17:10:51.632Z,9.60
2023-04-15T17:13:18.279Z,9.60
2023-04-15T17:15:45.071Z,9.60
2023-04-15T17:18:12.269Z,9.50
2023-04-15T17:20:39.071Z,9.40
2023-04-15T17:23:05.829Z,9.40
2023-04-15T17:25:34.755Z,9.30
2023-04-15T17:28:01.478Z,9.20
2023-04-15T17:30:28.214Z,9.20
2023-04-15T17:32:55.008Z,9.10
2023-04-15T17:35:23.054Z,9.00
2023-04-15T17:37:49.700Z,9.00
2023-04-15T17:40:16.602Z,9.00
2023-04-15T17:42:43.276Z,9.00
2023-04-15T17:45:10.173Z,8.80
2023-04-15T17:47:36.902Z,8.90
2023-04-15T17:50:03.765Z,8.80
2023-04-15T17:52:30.707Z,8.70
2023-04-15T17:54:57.450Z,8.60
2023-04-15T17:57:25.245Z,8.60
2023-04-15T17:59:52.074Z,8.60
2023-04-15T18:02:18.912Z,8.60
2023-04-15T18:04:45.938Z,8.60
2023-04-15T18:07:12.664Z,8.60
2023-04-15T18:09:39.430Z,8.50
2023-04-15T18:12:09.038Z,8.40
2023-04-15T18:14:38.660Z,8.40
2023-04-15T18:17:05.378Z,8.40
2023-04-15T18:19:32.197Z,8.30
2023-04-15T18:22:00.260Z,8.30
2023-04-15T18:24:27.449Z,8.20
2023-04-15T18:26:54.311Z,8.30
2023-04-15T18:29:21.278Z,8.10
2023-04-15T18:31:47.957Z,8.20
2023-04-15T18:34:17.285Z,8.10
2023-04-15T18:36:43.934Z,8.10
2023-04-15T18:39:10.617Z,8.10
2023-04-15T18:41:37.420Z,8.10
2023-04-15T18:44:04.082Z,8.20
2023-04-15T18:46:30.878Z,8.20
2023-04-15T18:48:57.642Z,8.00
2023-04-15T18:51:24.368Z,8.00
2023-04-15T18:53:51.616Z,8.10
2023-04-15T18:56:18.292Z,8.10
2023-04-15T18:59:09.344Z,8.00
2023-04-15T19:01:37.346Z,8.00
2023-04-15T19:04:04.249Z,8.00
2023-04-15T19:06:31.102Z,8.10
2023-04-15T19:08:58.754Z,8.10
2023-04-15T19:11:26.093Z,8.10
2023-04-15T19:13:53.307Z,8.10
2023-04-15T19:16:20.374Z,8.10
2023-04-15T19:18:47.261Z,8.10
2023-04-15T19:21:14.122Z,8.10
2023-04-15T19:23:42.959Z,8.00
2023-04-15T19:26:10.061Z,8.00
2023-04-15T19:28:36.756Z,8.00
2023-04-15T19:31:06.731Z,8.00
2023-04-15T19:33:33.910Z,8.00
2023-04-15T19:36:01.517Z,8.00
2023-04-15T19:38:28.151Z,8.00
2023-04-15T19:40:54.762Z,8.00
2023-04-15T19:43:21.425Z,8.10
2023-04-15T19:45:49.410Z,8.00
2023-04-15T19:48:16.879Z,8.00
2023-04-15T19:50:43.626Z,8.00
2023-04-15T19:53:10.351Z,8.00
2023-04-15T19:55:38.278Z,8.00
2023-04-15T19:58:05.952Z,8.10
2023-04-15T20:00:33.164Z,8.10
2023-04-15T20:03:00.276Z,8.10
2023-04-15T20:05:27.081Z,8.10
2023-04-15T20:07:53.851Z,8.00
2023-04-15T20:10:21.378Z,8.00
2023-04-15T20:12:53.225Z,8.00
2023-04-15T20:15:20.952Z,8.00
2023-04-15T20:17:47.606Z,8.00
2023-04-15T20:20:14.363Z,8.00
2023-04-15T20:22:41.438Z,8.00
2023-04-15T20:25:08.317Z,7.90
2023-04-15T20:27:35.009Z,7.90
2023-04-15T20:30:02.076Z,7.90
2023-04-15T20:32:28.879Z,7.90
2023-04-15T20:34:55.659Z,7.90
2023-04-15T20:37:22.442Z,7.90
2023-04-15T20:39:49.224Z,7.90
2023-04-15T20:42:15.981Z,7.90
2023-04-15T20:44:42.945Z,7.90
2023-04-15T20:47:09.686Z,8.00
2023-04-15T20:49:37.174Z,8.00
2023-04-15T20:52:04.272Z,8.00
2023-04-15T20:54:31.238Z,8.00
2023-04-15T20:56:58.176Z,8.00
2023-04-15T20:59:25.034Z,8.00
2023-04-15T21:01:51.747Z,8.00
2023-04-15T21:04:18.980Z,8.10
2023-04-15T21:06:45.676Z,8.10
2023-04-15T21:09:12.333Z,8.10
2023-04-15T21:11:57.421Z,8.10
2023-04-15T21:14:25.644Z,8.10
2023-04-15T21:16:52.316Z,8.10
2023-04-15T21:19:18.983Z,8.10
2023-04-15T21:21:45.668Z,8.10
2023-04-15T21:24:12.316Z,8.20
2023-04-15T21:26:39.042Z,8.20
2023-04-15T21:29:07.841Z,8.30
2023-04-15T21:31:36.522Z,8.20
2023-04-15T21:34:03.201Z,8.20
2023-04-15T21:36:29.894Z,8.20
2023-04-15T21:38:56.496Z,8.20
2023-04-15T21:41:23.214Z,8.20
2023-04-15T21:43:49.798Z,8.20
2023-04-15T21:46:23.124Z,8.20
2023-04-15T21:48:54.839Z,8.20
2023-04-15T21:51:21.451Z,8.20
2023-04-15T21:53:48.314Z,8.20
2023-04-15T21:56:14.922Z,8.20
2023-04-15T21:58:41.676Z,8.20
2023-04-15T22:01:08.320Z,8.10
2023-04-15T22:03:35.295Z,8.20
2023-04-15T22:06:03.111Z,8.20
2023-04-15T22:08:31.009Z,8.20
2023-04-15T22:11:00.559Z,8.10
2023-04-15T22:13:27.215Z,8.10
2023-04-15T22:15:53.801Z,8.20
2023-04-15T22:18:20.497Z,8.20
2023-04-15T22:20:47.167Z,8.20
2023-04-15T22:23:17.454Z,8.20
2023-04-15T22:25:44.197Z,8.20
2023-04-15T22:28:10.924Z,8.20
2023-04-15T22:30:41.483Z,8.20
2023-04-15T22:33:08.502Z,8.20
2023-04-15T22:35:36.221Z,8.20
2023-04-15T22:38:03.665Z,8.10
2023-04-15T22:40:30.516Z,8.10
2023-04-15T22:42:57.295Z,8.10
2023-04-15T22:45:23.992Z,8.20
2023-04-15T22:47:50.843Z,8.20
2023-04-15T22:50:17.764Z,8.10
2023-04-15T22:52:46.603Z,8.10
2023-04-15T22:55:13.359Z,8.20
2023-04-15T22:57:39.977Z,8.10
2023-04-15T23:00:07.472Z,8.10
2023-04-15T23:02:34.976Z,8.10
2023-04-15T23:05:02.968Z,8.10
2023-04-15T23:07:37.446Z,8.20
2023-04-15T23:10:04.217Z,8.10
2023-04-15T23:12:31.059Z,8.20
2023-04-15T23:14:57.685Z,8.10
2023-04-15T23:17:24.357Z,8.20
2023-04-15T23:19:50.985Z,8.20
2023-04-15T23:22:18.402Z,8.30
2023-04-15T23:24:45.038Z,8.20
2023-04-15T23:27:11.662Z,8.20
2023-04-15T23:29:38.307Z,8.20
2023-04-15T23:32:05.128Z,8.20
2023-04-15T23:34:31.765Z,8.20
2023-04-15T23:36:58.373Z,8.30
2023-04-15T23:39:25.030Z,8.20
2023-04-15T23:41:51.955Z,8.20
2023-04-15T23:44:18.886Z,8.20
2023-04-15T23:46:45.690Z,8.10
2023-04-15T23:49:12.546Z,8.10
2023-04-15T23:51:39.284Z,8.10
2023-04-15T23:54:05.970Z,8.10
2023-04-15T23:56:32.527Z,8.20
2023-04-15T23:58:59.106Z,8.30
